createdAt,value
2019-05-26T00:02:25.287Z,2.40
2019-05-26T00:04:52.475Z,2.30
2019-05-26T00:07:30.111Z,2.33
2019-05-26T00:09:48.594Z,3.47
2019-05-26T00:12:16.129Z,3.40
2019-05-26T00:14:44.183Z,2.40
2019-05-26T00:17:11.374Z,2.63
2019-05-26T00:19:38.603Z,2.30
2019-05-26T00:22:05.783Z,2.73
2019-05-26T00:24:32.971Z,2.53
2019-05-26T00:27:00.179Z,2.50
2019-05-26T00:29:27.402Z,2.17
2019-05-26T00:31:54.628Z,2.63
2019-05-26T00:34:21.828Z,2.43
2019-05-26T00:36:49.038Z,2.50
2019-05-26T00:39:16.252Z,2.40
2019-05-26T00:41:43.451Z,2.47
2019-05-26T00:44:10.653Z,2.33
2019-05-26T00:46:37.945Z,2.47
2019-05-26T00:49:05.150Z,3.10
2019-05-26T00:51:32.364Z,2.50
2019-05-26T00:53:59.556Z,3.10
2019-05-26T00:56:26.773Z,2.20
2019-05-26T00:58:53.983Z,2.23
2019-05-26T01:01:21.188Z,2.97
2019-05-26T01:03:48.390Z,2.90
2019-05-26T01:06:15.596Z,2.90
2019-05-26T01:08:42.839Z,2.60
2019-05-26T01:11:10.062Z,3.20
2019-05-26T01:13:37.326Z,3.10
2019-05-26T01:16:04.533Z,2.90
2019-05-26T01:18:31.728Z,2.87
2019-05-26T01:20:58.947Z,2.90
2019-05-26T01:23:26.148Z,3.27
2019-05-26T01:25:53.404Z,2.93
2019-05-26T01:28:21.158Z,3.07
2019-05-26T01:30:48.364Z,3.77
2019-05-26T01:33:15.598Z,4.23
2019-05-26T01:35:42.795Z,3.27
2019-05-26T01:38:23.306Z,3.50
2019-05-26T01:40:39.621Z,3.87
2019-05-26T01:43:07.184Z,3.93
2019-05-26T01:45:34.388Z,3.23
2019-05-26T01:48:01.584Z,3.10
2019-05-26T01:50:28.852Z,3.37
2019-05-26T01:52:56.034Z,3.30
2019-05-26T01:55:23.256Z,3.10
2019-05-26T01:57:50.526Z,3.23
2019-05-26T02:00:17.759Z,4.03
2019-05-26T02:02:44.939Z,3.97
2019-05-26T02:05:12.135Z,3.20
2019-05-26T02:07:39.425Z,3.77
2019-05-26T02:10:07.204Z,3.20
2019-05-26T02:12:34.417Z,3.73
2019-05-26T02:15:01.620Z,3.20
2019-05-26T02:17:28.897Z,3.07
2019-05-26T02:19:56.094Z,3.03
2019-05-26T02:22:23.336Z,4.10
2019-05-26T02:24:50.609Z,3.70
2019-05-26T02:27:17.792Z,3.13
2019-05-26T02:29:44.994Z,3.23
2019-05-26T02:32:12.203Z,3.70
2019-05-26T02:34:39.428Z,3.67
2019-05-26T02:37:06.691Z,3.20
2019-05-26T02:39:33.990Z,3.97
2019-05-26T02:42:01.263Z,4.50
2019-05-26T02:44:28.452Z,4.43
2019-05-26T02:46:55.663Z,4.80
2019-05-26T02:49:22.866Z,4.97
2019-05-26T02:51:50.069Z,3.40
2019-05-26T02:54:17.353Z,4.47
2019-05-26T02:56:44.616Z,4.27
2019-05-26T02:59:11.832Z,4.47
2019-05-26T03:01:58.286Z,4.20
2019-05-26T03:04:08.018Z,4.33
2019-05-26T03:06:35.209Z,4.60
2019-05-26T03:09:21.152Z,4.33
2019-05-26T03:11:31.352Z,4.17
2019-05-26T03:13:58.559Z,4.13
2019-05-26T03:16:25.773Z,4.63
2019-05-26T03:18:52.952Z,4.53
2019-05-26T03:21:20.475Z,4.67
2019-05-26T03:23:47.914Z,4.53
2019-05-26T03:26:15.138Z,5.40
2019-05-26T03:28:42.417Z,4.40
2019-05-26T03:31:09.638Z,4.03
2019-05-26T03:33:36.938Z,4.60
2019-05-26T03:36:04.196Z,4.37
2019-05-26T03:38:31.410Z,4.90
2019-05-26T03:40:58.628Z,5.13
2019-05-26T03:43:25.839Z,4.60
2019-05-26T03:46:03.663Z,5.37
2019-05-26T03:48:30.852Z,4.77
2019-05-26T03:50:58.039Z,5.40
2019-05-26T03:53:25.286Z,5.17
2019-05-26T03:55:52.539Z,5.40
2019-05-26T03:58:19.808Z,5.37
2019-05-26T04:00:47.083Z,5.60
2019-05-26T04:03:14.309Z,5.47
2019-05-26T04:05:41.573Z,5.40
2019-05-26T04:08:08.856Z,5.97
2019-05-26T04:10:36.041Z,5.13
2019-05-26T04:13:03.282Z,5.30
2019-05-26T04:15:30.574Z,5.27
2019-05-26T04:17:57.829Z,5.10
2019-05-26T04:20:25.105Z,5.53
2019-05-26T04:22:52.376Z,5.53
2019-05-26T04:25:19.597Z,5.70
2019-05-26T04:27:46.885Z,5.33
2019-05-26T04:30:14.167Z,5.10
2019-05-26T04:32:41.452Z,5.60
2019-05-26T04:35:08.711Z,5.47
2019-05-26T04:37:35.913Z,5.23
2019-05-26T04:40:24.851Z,5.40
2019-05-26T04:42:33.739Z,5.53
2019-05-26T04:45:01.005Z,6.10
2019-05-26T04:47:28.239Z,5.53
2019-05-26T04:49:55.442Z,5.57
2019-05-26T04:52:25.328Z,6.27
2019-05-26T04:54:52.507Z,5.47
2019-05-26T04:57:19.722Z,6.47
2019-05-26T04:59:46.984Z,5.37
2019-05-26T05:02:14.183Z,6.57
2019-05-26T05:04:41.379Z,5.73
2019-05-26T05:07:08.562Z,6.10
2019-05-26T05:09:35.785Z,6.43
2019-05-26T05:12:03.361Z,7.10
2019-05-26T05:14:30.574Z,5.90
2019-05-26T05:16:57.760Z,5.80
2019-05-26T05:19:24.960Z,6.10
2019-05-26T05:21:52.169Z,5.60
2019-05-26T05:24:19.425Z,5.83
2019-05-26T05:26:46.622Z,5.57
2019-05-26T05:29:13.830Z,5.33
2019-05-26T05:31:41.037Z,5.43
2019-05-26T05:34:08.218Z,5.37
2019-05-26T05:36:35.440Z,5.80
2019-05-26T05:39:02.732Z,5.13
2019-05-26T05:41:29.930Z,5.67
2019-05-26T05:43:57.147Z,6.67
2019-05-26T05:46:24.375Z,6.13
2019-05-26T05:48:51.633Z,7.93
2019-05-26T05:51:18.818Z,6.07
2019-05-26T05:53:46.032Z,6.10
2019-05-26T05:56:13.258Z,6.70
2019-05-26T05:58:40.494Z,6.67
2019-05-26T06:01:07.780Z,6.13
2019-05-26T06:03:34.976Z,5.87
2019-05-26T06:06:02.190Z,6.13
2019-05-26T06:08:29.378Z,5.73
2019-05-26T06:10:56.614Z,5.40
2019-05-26T06:13:23.879Z,5.83
2019-05-26T06:15:51.080Z,5.20
2019-05-26T06:18:18.290Z,5.40
2019-05-26T06:20:45.564Z,6.07
2019-05-26T06:23:12.900Z,5.10
2019-05-26T06:25:40.144Z,6.17
2019-05-26T06:28:07.377Z,5.47
2019-05-26T06:30:34.654Z,5.27
2019-05-26T06:33:01.859Z,4.90
2019-05-26T06:35:32.479Z,4.73
2019-05-26T06:37:57.992Z,5.33
2019-05-26T06:40:25.212Z,5.20
2019-05-26T06:42:52.483Z,4.30
2019-05-26T06:45:19.716Z,4.77
2019-05-26T06:47:46.911Z,5.23
2019-05-26T06:50:14.967Z,5.17
2019-05-26T06:52:42.207Z,5.10
2019-05-26T06:55:09.394Z,4.10
2019-05-26T06:57:36.707Z,4.93
2019-05-26T07:00:05.599Z,5.30
2019-05-26T07:02:32.826Z,4.70
2019-05-26T07:05:00.015Z,4.50
2019-05-26T07:07:27.203Z,4.43
2019-05-26T07:09:54.411Z,4.93
2019-05-26T07:12:21.695Z,3.83
2019-05-26T07:14:48.896Z,3.70
2019-05-26T07:17:16.110Z,3.63
2019-05-26T07:19:43.295Z,3.80
2019-05-26T07:22:10.482Z,3.67
2019-05-26T07:24:37.718Z,4.23
2019-05-26T07:27:04.929Z,3.80
2019-05-26T07:29:32.178Z,2.67
2019-05-26T07:31:59.404Z,3.13
2019-05-26T07:34:26.615Z,2.93
2019-05-26T07:36:53.811Z,2.90
2019-05-26T07:39:21.026Z,3.03
2019-05-26T07:41:48.225Z,2.50
2019-05-26T07:44:15.415Z,2.30
2019-05-26T07:46:42.637Z,2.70
2019-05-26T07:49:09.930Z,2.30
2019-05-26T07:51:37.209Z,2.40
2019-05-26T07:54:04.562Z,2.03
2019-05-26T07:56:31.834Z,1.97
2019-05-26T07:58:59.035Z,1.90
2019-05-26T08:01:35.185Z,2.57
2019-05-26T08:03:55.204Z,2.87
2019-05-26T08:06:22.475Z,2.40
2019-05-26T08:08:49.662Z,2.20
2019-05-26T08:11:17.168Z,2.20
2019-05-26T08:13:44.361Z,2.83
2019-05-26T08:16:11.560Z,2.33
2019-05-26T08:18:38.836Z,2.77
2019-05-26T08:21:06.101Z,2.33
2019-05-26T08:23:33.330Z,2.40
2019-05-26T08:26:00.610Z,2.20
2019-05-26T08:28:27.789Z,2.13
2019-05-26T08:30:54.984Z,1.70
2019-05-26T08:33:22.180Z,1.70
2019-05-26T08:35:49.389Z,2.50
2019-05-26T08:38:16.664Z,2.10
2019-05-26T08:40:43.942Z,1.80
2019-05-26T08:43:11.467Z,1.70
2019-05-26T08:45:39.540Z,1.80
2019-05-26T08:48:07.009Z,2.07
2019-05-26T08:50:34.617Z,5.03
2019-05-26T08:53:02.400Z,2.50
2019-05-26T08:55:29.683Z,1.60
2019-05-26T08:57:56.897Z,1.60
2019-05-26T09:00:24.360Z,1.87
2019-05-26T09:02:51.575Z,1.67
2019-05-26T09:05:18.846Z,2.13
2019-05-26T09:07:46.060Z,2.03
2019-05-26T09:10:14.136Z,2.17
2019-05-26T09:12:41.428Z,2.20
2019-05-26T09:15:08.713Z,3.03
2019-05-26T09:17:35.930Z,1.80
2019-05-26T09:20:04.457Z,1.77
2019-05-26T09:22:31.728Z,1.80
2019-05-26T09:24:59.042Z,1.70
2019-05-26T09:27:26.326Z,1.90
2019-05-26T09:29:53.638Z,2.20
2019-05-26T09:32:20.907Z,2.67
2019-05-26T09:34:48.131Z,2.47
2019-05-26T09:37:15.323Z,1.83
2019-05-26T09:39:42.552Z,2.37
2019-05-26T09:42:09.746Z,1.80
2019-05-26T09:44:37.015Z,1.83
2019-05-26T09:47:04.279Z,2.00
2019-05-26T09:49:31.582Z,2.13
2019-05-26T09:51:58.779Z,2.23
2019-05-26T09:54:26.071Z,2.20
2019-05-26T09:56:53.293Z,1.83
2019-05-26T09:59:20.488Z,2.60
2019-05-26T10:01:47.691Z,2.40
2019-05-26T10:04:14.902Z,5.67
2019-05-26T10:06:42.181Z,2.60
2019-05-26T10:09:09.473Z,2.30
2019-05-26T10:11:36.665Z,2.47
2019-05-26T10:14:03.974Z,3.10
2019-05-26T10:16:31.159Z,2.40
2019-05-26T10:18:58.368Z,2.87
2019-05-26T10:21:25.552Z,2.40
2019-05-26T10:23:53.289Z,2.60
2019-05-26T10:26:20.844Z,1.90
2019-05-26T10:28:48.145Z,2.03
2019-05-26T10:31:15.374Z,2.87
2019-05-26T10:33:42.583Z,3.37
2019-05-26T10:36:09.786Z,2.67
2019-05-26T10:38:37.015Z,2.73
2019-05-26T10:41:04.419Z,2.17
2019-05-26T10:43:44.510Z,2.90
2019-05-26T10:46:00.540Z,2.77
2019-05-26T10:48:27.783Z,3.20
2019-05-26T10:50:55.075Z,2.37
2019-05-26T10:53:22.351Z,2.50
2019-05-26T10:55:49.548Z,3.77
2019-05-26T10:58:16.839Z,2.70
2019-05-26T11:00:44.031Z,2.73
2019-05-26T11:03:11.252Z,2.57
2019-05-26T11:05:38.447Z,2.93
2019-05-26T11:08:05.671Z,2.20
2019-05-26T11:10:32.890Z,2.63
2019-05-26T11:13:00.156Z,3.10
2019-05-26T11:15:27.362Z,2.40
2019-05-26T11:17:54.566Z,2.67
2019-05-26T11:20:22.743Z,2.33
2019-05-26T11:22:49.943Z,2.67
2019-05-26T11:25:17.145Z,3.10
2019-05-26T11:27:44.357Z,2.60
2019-05-26T11:30:12.126Z,2.30
2019-05-26T11:32:39.416Z,2.63
2019-05-26T11:35:08.320Z,2.40
2019-05-26T11:37:35.526Z,3.37
2019-05-26T11:40:04.022Z,2.70
2019-05-26T11:42:32.295Z,2.20
2019-05-26T11:44:59.546Z,2.63
2019-05-26T11:47:26.764Z,3.27
2019-05-26T11:49:53.973Z,2.73
2019-05-26T11:52:21.196Z,2.80
2019-05-26T11:54:48.480Z,2.47
2019-05-26T11:57:15.738Z,3.00
2019-05-26T11:59:47.016Z,2.83
2019-05-26T12:02:11.871Z,2.40
2019-05-26T12:04:39.077Z,2.97
2019-05-26T12:07:06.281Z,2.70
2019-05-26T12:09:33.869Z,2.50
2019-05-26T12:12:01.113Z,2.27
2019-05-26T12:14:34.994Z,2.57
2019-05-26T12:16:57.314Z,2.57
2019-05-26T12:19:26.646Z,2.50
2019-05-26T12:21:53.851Z,2.27
2019-05-26T12:24:21.618Z,2.70
2019-05-26T12:26:48.861Z,2.43
2019-05-26T12:29:16.145Z,2.60
2019-05-26T12:31:43.492Z,2.63
2019-05-26T12:34:10.720Z,2.90
2019-05-26T12:36:39.500Z,2.87
2019-05-26T12:39:08.745Z,3.13
2019-05-26T12:41:37.355Z,2.77
2019-05-26T12:44:05.280Z,2.67
2019-05-26T12:46:32.484Z,2.43
2019-05-26T12:48:59.686Z,2.87
2019-05-26T12:51:26.897Z,3.00
2019-05-26T12:53:54.146Z,3.03
2019-05-26T12:56:21.412Z,2.70
2019-05-26T12:58:48.643Z,2.63
2019-05-26T13:01:15.852Z,3.30
2019-05-26T13:03:43.059Z,2.67
2019-05-26T13:06:10.273Z,2.80
2019-05-26T13:08:37.483Z,2.27
2019-05-26T13:11:04.766Z,2.60
2019-05-26T13:13:32.018Z,2.50
2019-05-26T13:15:59.252Z,2.57
2019-05-26T13:18:26.514Z,2.50
2019-05-26T13:20:54.453Z,2.37
2019-05-26T13:23:21.661Z,2.40
2019-05-26T13:25:48.867Z,2.10
2019-05-26T13:28:16.090Z,1.87
2019-05-26T13:30:43.346Z,2.07
2019-05-26T13:33:10.567Z,2.00
2019-05-26T13:35:37.752Z,1.93
2019-05-26T13:38:04.970Z,2.33
2019-05-26T13:40:32.184Z,1.90
2019-05-26T13:42:59.391Z,1.83
2019-05-26T13:45:26.594Z,2.03
2019-05-26T13:47:53.799Z,2.10
2019-05-26T13:50:21.003Z,2.20
2019-05-26T13:52:48.204Z,2.10
2019-05-26T13:55:16.391Z,2.10
2019-05-26T13:57:43.585Z,2.20
2019-05-26T14:00:11.902Z,2.23
2019-05-26T14:02:39.186Z,2.33
2019-05-26T14:05:06.527Z,1.83
2019-05-26T14:07:33.731Z,1.90
2019-05-26T14:10:00.952Z,1.97
2019-05-26T14:12:28.204Z,2.07
2019-05-26T14:14:55.397Z,1.90
2019-05-26T14:17:22.582Z,1.20
2019-05-26T14:19:49.808Z,1.73
2019-05-26T14:22:16.998Z,1.47
2019-05-26T14:24:53.278Z,2.23
2019-05-26T14:27:13.134Z,2.30
2019-05-26T14:29:40.334Z,2.30
2019-05-26T14:32:07.527Z,5.93
2019-05-26T14:34:34.710Z,5.50
2019-05-26T14:37:01.929Z,8.00
2019-05-26T14:39:29.123Z,6.63
2019-05-26T14:41:56.324Z,3.50
2019-05-26T14:44:23.528Z,2.80
2019-05-26T14:46:50.726Z,1.47
2019-05-26T14:49:17.926Z,1.80
2019-05-26T14:51:45.123Z,1.67
2019-05-26T14:54:12.329Z,1.80
2019-05-26T14:56:39.531Z,1.50
2019-05-26T14:59:06.766Z,1.57
2019-05-26T15:01:34.038Z,1.73
2019-05-26T15:04:01.246Z,1.40
2019-05-26T15:06:28.439Z,1.77
2019-05-26T15:08:55.652Z,2.97
2019-05-26T15:11:22.883Z,1.77
2019-05-26T15:13:50.081Z,1.73
2019-05-26T15:16:17.284Z,2.30
2019-05-26T15:18:44.475Z,1.70
2019-05-26T15:21:11.679Z,1.70
2019-05-26T15:23:38.879Z,1.70
2019-05-26T15:26:06.083Z,1.50
2019-05-26T15:28:33.295Z,1.50
2019-05-26T15:31:00.492Z,1.63
2019-05-26T15:33:27.695Z,1.50
2019-05-26T15:35:54.888Z,1.30
2019-05-26T15:38:22.117Z,1.40
2019-05-26T15:40:49.426Z,1.70
2019-05-26T15:43:16.628Z,1.90
2019-05-26T15:45:43.818Z,1.87
2019-05-26T15:48:11.024Z,2.70
2019-05-26T15:50:38.218Z,1.70
2019-05-26T15:53:05.437Z,1.40
2019-05-26T15:55:32.703Z,7.97
2019-05-26T15:57:59.900Z,2.63
2019-05-26T16:00:27.134Z,1.90
2019-05-26T16:02:54.396Z,1.63
2019-05-26T16:05:21.634Z,2.20
2019-05-26T16:07:48.885Z,1.33
2019-05-26T16:10:16.196Z,2.20
2019-05-26T16:12:43.450Z,1.80
2019-05-26T16:15:10.736Z,2.87
2019-05-26T16:17:39.005Z,2.40
2019-05-26T16:20:06.907Z,1.70
2019-05-26T16:22:34.097Z,1.40
2019-05-26T16:25:01.408Z,1.47
2019-05-26T16:27:28.676Z,1.30
2019-05-26T16:29:55.923Z,1.50
2019-05-26T16:32:23.191Z,1.77
2019-05-26T16:34:50.411Z,1.77
2019-05-26T16:37:17.617Z,1.70
2019-05-26T16:39:44.803Z,1.20
2019-05-26T16:42:12.027Z,1.73
2019-05-26T16:44:39.218Z,1.67
2019-05-26T16:47:06.517Z,2.17
2019-05-26T16:49:33.787Z,1.37
2019-05-26T16:52:00.976Z,1.20
2019-05-26T16:54:28.192Z,1.20
2019-05-26T16:56:55.498Z,1.43
2019-05-26T16:59:22.767Z,1.20
2019-05-26T17:01:49.955Z,1.33
2019-05-26T17:04:17.180Z,1.87
2019-05-26T17:06:44.376Z,1.50
2019-05-26T17:09:11.583Z,1.23
2019-05-26T17:11:38.785Z,1.40
2019-05-26T17:14:05.981Z,1.17
2019-05-26T17:16:33.187Z,1.50
2019-05-26T17:19:00.491Z,1.57
2019-05-26T17:21:27.693Z,1.50
2019-05-26T17:23:54.870Z,1.50
2019-05-26T17:26:22.111Z,1.40
2019-05-26T17:28:49.762Z,1.43
2019-05-26T17:31:17.018Z,1.40
2019-05-26T17:33:44.373Z,1.20
2019-05-26T17:36:11.648Z,1.17
2019-05-26T17:38:38.894Z,1.47
2019-05-26T17:41:06.144Z,0.97
2019-05-26T17:43:33.350Z,1.13
2019-05-26T17:46:00.543Z,1.20
2019-05-26T17:48:28.539Z,1.27
2019-05-26T17:50:55.729Z,1.40
2019-05-26T17:53:22.940Z,1.30
2019-05-26T17:55:50.124Z,1.40
2019-05-26T17:58:17.367Z,1.27
2019-05-26T18:00:44.703Z,1.00
2019-05-26T18:03:11.923Z,2.33
2019-05-26T18:05:39.343Z,1.30
2019-05-26T18:08:06.607Z,1.70
2019-05-26T18:10:33.870Z,1.60
2019-05-26T18:13:01.093Z,1.40
2019-05-26T18:15:28.287Z,1.67
2019-05-26T18:17:55.496Z,1.10
2019-05-26T18:20:22.744Z,1.00
2019-05-26T18:22:49.994Z,1.10
2019-05-26T18:25:17.244Z,1.73
2019-05-26T18:27:44.692Z,1.20
2019-05-26T18:30:11.891Z,2.20
2019-05-26T18:32:39.083Z,1.30
2019-05-26T18:35:06.390Z,1.30
2019-05-26T18:37:33.589Z,1.50
2019-05-26T18:40:00.813Z,1.80
2019-05-26T18:42:28.104Z,1.30
2019-05-26T18:44:55.338Z,1.50
2019-05-26T18:47:22.553Z,1.80
2019-05-26T18:49:49.830Z,1.57
2019-05-26T18:52:17.132Z,1.40
2019-05-26T18:54:44.395Z,1.80
2019-05-26T18:57:11.629Z,1.77
2019-05-26T18:59:38.849Z,1.50
2019-05-26T19:02:06.124Z,1.57
2019-05-26T19:04:33.343Z,1.83
2019-05-26T19:07:00.637Z,2.03
2019-05-26T19:09:27.839Z,1.47
2019-05-26T19:11:55.094Z,1.73
2019-05-26T19:14:22.359Z,1.20
2019-05-26T19:16:49.620Z,2.47
2019-05-26T19:19:16.842Z,1.27
2019-05-26T19:21:44.060Z,1.60
2019-05-26T19:24:11.345Z,1.50
2019-05-26T19:26:38.605Z,1.87
2019-05-26T19:29:05.813Z,1.40
2019-05-26T19:31:33.071Z,1.50
2019-05-26T19:34:00.358Z,1.50
2019-05-26T19:36:27.655Z,2.73
2019-05-26T19:38:54.866Z,1.50
2019-05-26T19:41:22.150Z,1.60
2019-05-26T19:43:49.469Z,1.57
2019-05-26T19:46:16.715Z,1.40
2019-05-26T19:48:44.008Z,1.50
2019-05-26T19:51:11.205Z,1.53
2019-05-26T19:53:38.490Z,1.53
2019-05-26T19:56:05.785Z,1.83
2019-05-26T19:58:33.090Z,1.87
2019-05-26T20:01:00.360Z,1.60
2019-05-26T20:03:27.583Z,1.67
2019-05-26T20:05:54.867Z,1.90
2019-05-26T20:08:22.146Z,1.73
2019-05-26T20:10:49.411Z,1.93
2019-05-26T20:13:16.640Z,2.00
2019-05-26T20:15:43.842Z,1.87
2019-05-26T20:18:11.045Z,1.97
2019-05-26T20:20:38.278Z,1.73
2019-05-26T20:23:05.485Z,2.17
2019-05-26T20:25:32.667Z,2.67
2019-05-26T20:27:59.930Z,1.90
2019-05-26T20:30:27.144Z,2.10
2019-05-26T20:32:54.363Z,2.17
2019-05-26T20:35:21.615Z,1.60
2019-05-26T20:37:48.846Z,1.47
2019-05-26T20:40:16.795Z,1.73
2019-05-26T20:42:44.131Z,2.60
2019-05-26T20:45:11.393Z,1.67
2019-05-26T20:47:38.656Z,1.67
2019-05-26T20:50:07.429Z,1.60
2019-05-26T20:52:34.648Z,2.20
2019-05-26T20:55:01.989Z,1.60
2019-05-26T20:57:29.170Z,1.90
2019-05-26T20:59:56.385Z,1.80
2019-05-26T21:02:23.596Z,1.60
2019-05-26T21:04:50.812Z,1.77
2019-05-26T21:07:18.100Z,2.13
2019-05-26T21:09:45.376Z,1.70
2019-05-26T21:12:12.680Z,2.07
2019-05-26T21:14:39.895Z,1.97
2019-05-26T21:17:07.093Z,1.70
2019-05-26T21:19:34.322Z,1.93
2019-05-26T21:22:01.616Z,2.10
2019-05-26T21:24:28.882Z,1.87
2019-05-26T21:26:56.095Z,2.03
2019-05-26T21:29:23.301Z,2.27
2019-05-26T21:31:50.568Z,2.00
2019-05-26T21:34:17.858Z,2.10
2019-05-26T21:36:45.068Z,2.27
2019-05-26T21:39:12.337Z,2.30
2019-05-26T21:41:39.517Z,1.93
2019-05-26T21:44:06.708Z,2.37
2019-05-26T21:46:33.923Z,2.37
2019-05-26T21:49:01.209Z,2.27
2019-05-26T21:51:28.471Z,2.30
2019-05-26T21:53:55.667Z,2.10
2019-05-26T21:56:22.892Z,2.30
2019-05-26T21:58:50.105Z,2.13
2019-05-26T22:01:17.317Z,2.03
2019-05-26T22:03:44.526Z,1.93
2019-05-26T22:06:11.727Z,2.10
2019-05-26T22:08:38.933Z,1.90
2019-05-26T22:11:06.123Z,2.37
2019-05-26T22:13:33.324Z,2.30
2019-05-26T22:16:00.771Z,2.70
2019-05-26T22:18:27.979Z,2.60
2019-05-26T22:20:55.162Z,2.40
2019-05-26T22:23:22.381Z,1.97
2019-05-26T22:25:49.621Z,2.50
2019-05-26T22:28:16.855Z,2.27
2019-05-26T22:30:44.046Z,2.27
2019-05-26T22:33:11.287Z,2.30
2019-05-26T22:35:38.485Z,2.93
2019-05-26T22:38:05.691Z,2.97
2019-05-26T22:40:32.900Z,2.33
2019-05-26T22:43:00.179Z,2.27
2019-05-26T22:45:27.370Z,2.50
2019-05-26T22:47:54.747Z,2.50
2019-05-26T22:50:21.961Z,2.70
2019-05-26T22:52:49.175Z,2.33
2019-05-26T22:55:16.416Z,2.60
2019-05-26T22:57:43.650Z,2.73
2019-05-26T23:00:12.488Z,2.30
2019-05-26T23:02:39.936Z,2.63
2019-05-26T23:05:07.257Z,2.57
2019-05-26T23:07:34.538Z,2.33
2019-05-26T23:10:02.866Z,2.27
2019-05-26T23:12:31.067Z,2.20
2019-05-26T23:14:58.359Z,2.27
2019-05-26T23:17:25.550Z,2.10
2019-05-26T23:19:52.749Z,2.43
2019-05-26T23:22:19.943Z,2.77
2019-05-26T23:24:47.212Z,2.60
2019-05-26T23:27:14.397Z,2.20
2019-05-26T23:29:41.622Z,2.73
2019-05-26T23:32:08.907Z,2.43
2019-05-26T23:34:36.222Z,2.90
2019-05-26T23:37:03.423Z,2.33
2019-05-26T23:39:30.627Z,2.43
2019-05-26T23:41:57.832Z,2.53
2019-05-26T23:44:25.058Z,3.27
2019-05-26T23:46:52.318Z,2.63
2019-05-26T23:49:19.503Z,2.27
2019-05-26T23:51:55.666Z,2.83
2019-05-26T23:54:21.771Z,2.50
2019-05-26T23:56:48.971Z,2.53
2019-05-26T23:59:16.169Z,2.53
